Time;durP1;ratioP1;P1;durP2;ratioP2;P2;SDS_P1;SDS_P2;PMS_P1;PMS_P2;Temp;Humidity;BMP_temperature;BMP_pressure;BME280_temperature;BME280_humidity;BME280_pressure;Samples;Min_cycle;Max_cycle;Signal;HPM_P1;HPM_P2
2023/04/29 00:00:05;;;;;;;5.07;2.53;;;;;;;;;;4980476;28;20042;-80
2023/04/29 00:02:31;;;;;;;5.63;2.75;;;;;;;;;;4997465;28;20418;-79
2023/04/29 00:04:57;;;;;;;5.82;2.95;;;;;;;;;;4982285;28;20027;-80
2023/04/29 00:07:23;;;;;;;4.65;2.78;;;;;;;;;;4981981;28;20094;-80
2023/04/29 00:09:48;;;;;;;3.67;2.50;;;;;;;;;;4981698;28;20027;-79
2023/04/29 00:12:13;;;;;;;4.63;2.78;;;;;;;;;;4981895;28;20022;-80
2023/04/29 00:14:39;;;;;;;6.32;3.20;;;;;;;;;;4982040;28;20030;-80
2023/04/29 00:17:05;;;;;;;5.60;2.80;;;;;;;;;;4981878;28;20025;-80
2023/04/29 00:19:34;;;;;;;6.32;2.95;;;;;;;;;;4981903;28;20086;-79
2023/04/29 00:22:00;;;;;;;5.10;3.03;;;;;;;;;;4981597;28;20031;-80
2023/04/29 00:24:25;;;;;;;5.78;2.78;;;;;;;;;;4996864;28;20026;-80
2023/04/29 00:26:51;;;;;;;6.72;2.72;;;;;;;;;;4981390;28;20365;-79
2023/04/29 00:29:17;;;;;;;6.45;3.05;;;;;;;;;;4981741;28;20098;-80
2023/04/29 00:31:42;;;;;;;8.82;2.72;;;;;;;;;;4981527;28;20030;-79
2023/04/29 00:34:08;;;;;;;7.32;3.42;;;;;;;;;;4981260;28;20135;-80
2023/04/29 00:36:34;;;;;;;6.55;3.10;;;;;;;;;;4981166;28;20027;-80
2023/04/29 00:38:59;;;;;;;6.65;3.08;;;;;;;;;;4980780;28;20134;-79
2023/04/29 00:41:25;;;;;;;6.00;3.17;;;;;;;;;;4980482;28;20074;-80
2023/04/29 00:43:51;;;;;;;9.38;3.50;;;;;;;;;;4980976;28;20208;-78
2023/04/29 00:46:17;;;;;;;6.25;3.17;;;;;;;;;;4980714;28;20469;-80
2023/04/29 00:48:42;;;;;;;6.63;2.63;;;;;;;;;;4980992;28;20082;-80
2023/04/29 00:51:08;;;;;;;7.20;3.05;;;;;;;;;;4981043;28;20326;-79
2023/04/29 00:53:34;;;;;;;7.75;3.35;;;;;;;;;;4996896;28;20341;-79
2023/04/29 00:56:01;;;;;;;4.95;3.00;;;;;;;;;;4981445;28;20033;-78
2023/04/29 00:58:32;;;;;;;4.85;2.60;;;;;;;;;;4981462;28;20071;-77
2023/04/29 01:00:58;;;;;;;7.22;3.70;;;;;;;;;;4981290;28;20042;-78
2023/04/29 01:03:24;;;;;;;8.27;3.70;;;;;;;;;;4984123;28;20043;-78
2023/04/29 01:06:02;;;;;;;5.47;2.80;;;;;;;;;;5000104;28;20031;-79
2023/04/29 01:08:48;;;;;;;6.75;3.10;;;;;;;;;;4985029;28;20026;-80
2023/04/29 01:11:17;;;;;;;7.50;2.90;;;;;;;;;;4984819;28;20022;-78
2023/04/29 01:13:48;;;;;;;5.47;3.17;;;;;;;;;;5000017;28;20027;-79
2023/04/29 01:16:33;;;;;;;6.35;2.83;;;;;;;;;;4984990;28;20089;-77
2023/04/29 01:19:06;;;;;;;5.85;2.80;;;;;;;;;;4984973;28;20033;-79
2023/04/29 01:21:31;;;;;;;6.32;2.75;;;;;;;;;;4984570;28;20282;-78
2023/04/29 01:23:57;;;;;;;5.75;3.00;;;;;;;;;;4984280;28;20026;-75
2023/04/29 01:26:23;;;;;;;5.25;2.75;;;;;;;;;;4983732;28;20042;-76
2023/04/29 01:29:07;;;;;;;5.60;2.45;;;;;;;;;;4984040;28;20097;-76
2023/04/29 01:32:08;;;;;;;6.13;3.30;;;;;;;;;;4984484;28;20027;-79
2023/04/29 01:34:54;;;;;;;;;;;;;;;;;;4973651;28;20045;-79
2023/04/29 01:37:42;;;;;;;6.60;3.45;;;;;;;;;;4983001;28;19910;-79
2023/04/29 01:40:10;;;;;;;5.45;3.17;;;;;;;;;;4984561;28;20038;-77
2023/04/29 01:42:44;;;;;;;8.68;3.38;;;;;;;;;;4984694;28;20073;-78
2023/04/29 01:45:11;;;;;;;7.43;3.17;;;;;;;;;;4984425;28;20065;-79
2023/04/29 01:47:40;;;;;;;4.97;3.25;;;;;;;;;;4984487;28;20022;-79
2023/04/29 01:50:09;;;;;;;5.55;3.20;;;;;;;;;;4984209;28;20037;-78
2023/04/29 01:52:35;;;;;;;6.40;3.40;;;;;;;;;;5001433;28;20034;-80
2023/04/29 01:55:01;;;;;;;6.32;3.75;;;;;;;;;;5003971;28;20026;-79
2023/04/29 01:57:26;;;;;;;7.25;3.47;;;;;;;;;;5002397;28;20189;-79
2023/04/29 01:59:51;;;;;;;7.13;3.42;;;;;;;;;;5003603;28;20408;-80
2023/04/29 02:02:20;;;;;;;8.68;3.30;;;;;;;;;;5003569;28;20191;-76
2023/04/29 02:04:45;;;;;;;6.25;3.55;;;;;;;;;;5003804;28;20351;-79
2023/04/29 02:07:11;;;;;;;5.88;3.28;;;;;;;;;;5003474;28;20022;-79
2023/04/29 02:09:39;;;;;;;8.98;3.72;;;;;;;;;;5003534;28;20034;-79
2023/04/29 02:12:05;;;;;;;6.82;3.53;;;;;;;;;;5002989;28;20026;-79
2023/04/29 02:14:30;;;;;;;8.07;3.40;;;;;;;;;;5002097;28;20092;-79
2023/04/29 02:16:56;;;;;;;7.88;3.53;;;;;;;;;;5002561;28;20033;-74
2023/04/29 02:19:21;;;;;;;9.18;3.20;;;;;;;;;;5002954;28;20061;-73
2023/04/29 02:21:46;;;;;;;6.70;3.45;;;;;;;;;;5002319;28;20026;-73
2023/04/29 02:24:12;;;;;;;9.10;3.55;;;;;;;;;;5002504;28;20101;-78
2023/04/29 02:26:37;;;;;;;8.93;3.33;;;;;;;;;;5002317;28;20057;-79
2023/04/29 02:29:03;;;;;;;7.78;3.50;;;;;;;;;;5003199;28;20023;-79
2023/04/29 02:31:28;;;;;;;7.97;3.10;;;;;;;;;;5003002;28;20217;-79
2023/04/29 02:33:54;;;;;;;7.70;3.30;;;;;;;;;;5001804;28;20026;-80
2023/04/29 02:36:20;;;;;;;6.78;3.28;;;;;;;;;;5002784;28;20029;-80
2023/04/29 02:38:45;;;;;;;8.10;3.60;;;;;;;;;;5002767;28;20034;-79
2023/04/29 02:41:18;;;;;;;6.28;3.10;;;;;;;;;;5002909;28;20026;-80
2023/04/29 02:43:43;;;;;;;7.70;3.35;;;;;;;;;;5002623;28;20096;-79
2023/04/29 02:46:09;;;;;;;7.20;3.20;;;;;;;;;;5002823;28;20188;-80
2023/04/29 02:48:34;;;;;;;5.93;3.20;;;;;;;;;;5001583;28;20074;-79
2023/04/29 02:50:59;;;;;;;5.85;3.28;;;;;;;;;;5002309;28;20318;-77
2023/04/29 02:53:25;;;;;;;6.60;3.38;;;;;;;;;;5002227;28;20026;-79
2023/04/29 02:55:51;;;;;;;8.32;3.42;;;;;;;;;;5002741;28;20061;-80
2023/04/29 02:58:16;;;;;;;5.75;3.50;;;;;;;;;;5000935;28;20049;-78
2023/04/29 03:00:41;;;;;;;6.75;3.35;;;;;;;;;;5001231;28;20022;-80
2023/04/29 03:03:07;;;;;;;7.05;3.45;;;;;;;;;;5001719;28;20052;-79
2023/04/29 03:05:33;;;;;;;5.20;3.00;;;;;;;;;;5002497;28;20015;-79
2023/04/29 03:07:59;;;;;;;6.45;3.17;;;;;;;;;;5001193;28;20106;-79
2023/04/29 03:10:24;;;;;;;6.95;3.65;;;;;;;;;;5002041;28;20026;-79
2023/04/29 03:12:49;;;;;;;8.50;3.42;;;;;;;;;;5002369;28;20056;-79
2023/04/29 03:15:15;;;;;;;7.03;3.38;;;;;;;;;;5002406;28;20064;-79
2023/04/29 03:17:41;;;;;;;8.00;3.90;;;;;;;;;;5002084;28;20187;-80
2023/04/29 03:20:09;;;;;;;7.45;3.58;;;;;;;;;;5000739;28;20035;-79
2023/04/29 03:22:35;;;;;;;8.25;3.40;;;;;;;;;;5001721;28;20069;-77
2023/04/29 03:25:00;;;;;;;8.55;3.50;;;;;;;;;;5000107;28;20034;-79
2023/04/29 03:27:25;;;;;;;6.03;3.80;;;;;;;;;;5001541;28;20129;-78
2023/04/29 03:29:51;;;;;;;8.25;3.90;;;;;;;;;;5001228;28;20056;-80
2023/04/29 03:32:17;;;;;;;9.48;3.88;;;;;;;;;;5000867;28;20022;-80
2023/04/29 03:34:42;;;;;;;9.90;3.70;;;;;;;;;;5000353;28;20026;-79
2023/04/29 03:37:07;;;;;;;7.63;3.90;;;;;;;;;;5001878;28;20096;-79
2023/04/29 03:39:33;;;;;;;11.45;4.18;;;;;;;;;;5001895;28;20028;-79
2023/04/29 03:41:58;;;;;;;11.23;4.35;;;;;;;;;;5001853;28;20093;-79
2023/04/29 03:44:24;;;;;;;10.73;4.40;;;;;;;;;;5001512;28;20041;-79
2023/04/29 03:46:50;;;;;;;13.05;4.15;;;;;;;;;;5001727;28;20030;-80
2023/04/29 03:49:16;;;;;;;12.63;4.85;;;;;;;;;;5001699;28;20067;-80
2023/04/29 03:51:43;;;;;;;8.60;4.43;;;;;;;;;;5001862;28;20026;-80
2023/04/29 03:54:09;;;;;;;9.85;4.88;;;;;;;;;;5000319;28;20065;-80
2023/04/29 03:56:35;;;;;;;13.13;4.80;;;;;;;;;;5001456;28;20085;-80
2023/04/29 03:59:00;;;;;;;11.30;4.72;;;;;;;;;;5001329;28;20038;-81
2023/04/29 04:01:25;;;;;;;11.23;4.65;;;;;;;;;;5001272;28;20026;-79
2023/04/29 04:03:51;;;;;;;11.23;4.32;;;;;;;;;;5001002;28;20026;-80
2023/04/29 04:06:16;;;;;;;12.30;4.57;;;;;;;;;;5001358;28;20025;-79
2023/04/29 04:08:42;;;;;;;14.00;5.07;;;;;;;;;;4999491;28;20040;-80
2023/04/29 04:11:08;;;;;;;15.07;5.30;;;;;;;;;;5000886;28;20452;-78
2023/04/29 04:13:34;;;;;;;15.55;5.05;;;;;;;;;;5000036;28;20022;-80
2023/04/29 04:15:59;;;;;;;14.65;5.05;;;;;;;;;;5001122;28;20024;-79
2023/04/29 04:18:25;;;;;;;13.57;5.40;;;;;;;;;;5000409;28;20034;-80
2023/04/29 04:20:50;;;;;;;13.50;5.25;;;;;;;;;;4999169;28;20101;-79
2023/04/29 04:23:18;;;;;;;10.85;4.60;;;;;;;;;;5000071;28;20355;-78
2023/04/29 04:25:47;;;;;;;8.68;4.80;;;;;;;;;;5000982;28;20097;-79
2023/04/29 04:28:13;;;;;;;10.60;5.03;;;;;;;;;;4999928;28;20455;-79
2023/04/29 04:30:39;;;;;;;12.05;4.72;;;;;;;;;;5000682;28;20053;-81
2023/04/29 04:33:04;;;;;;;10.88;5.45;;;;;;;;;;5000757;28;20318;-79
2023/04/29 04:35:30;;;;;;;10.63;5.40;;;;;;;;;;4999956;28;20049;-78
2023/04/29 04:37:56;;;;;;;11.52;5.20;;;;;;;;;;5000445;28;20026;-80
2023/04/29 04:40:21;;;;;;;12.98;5.07;;;;;;;;;;4999447;28;20114;-79
2023/04/29 04:42:50;;;;;;;13.18;5.57;;;;;;;;;;4999593;28;20034;-79
2023/04/29 04:45:15;;;;;;;14.52;6.20;;;;;;;;;;4999744;28;20022;-78
2023/04/29 04:47:41;;;;;;;12.13;5.20;;;;;;;;;;4999428;28;20038;-80
2023/04/29 04:50:07;;;;;;;9.15;4.97;;;;;;;;;;5000781;28;20090;-79
2023/04/29 04:52:33;;;;;;;17.17;6.22;;;;;;;;;;5000819;28;20023;-80
2023/04/29 04:54:59;;;;;;;16.20;5.95;;;;;;;;;;5000717;28;20029;-80
2023/04/29 04:57:24;;;;;;;12.25;5.20;;;;;;;;;;4998934;28;20191;-77
2023/04/29 04:59:50;;;;;;;13.75;5.35;;;;;;;;;;5000752;28;20046;-80
2023/04/29 05:02:15;;;;;;;11.32;5.70;;;;;;;;;;5000705;28;20022;-79
2023/04/29 05:04:41;;;;;;;11.82;4.85;;;;;;;;;;4999803;28;20027;-79
2023/04/29 05:07:06;;;;;;;16.05;6.10;;;;;;;;;;4998664;28;20281;-79
2023/04/29 05:09:31;;;;;;;15.77;6.00;;;;;;;;;;4999322;28;20030;-81
2023/04/29 05:11:58;;;;;;;12.00;6.03;;;;;;;;;;5000005;28;20056;-80
2023/04/29 05:14:24;;;;;;;11.05;5.93;;;;;;;;;;5000580;28;20038;-78
2023/04/29 05:16:51;;;;;;;12.00;5.97;;;;;;;;;;5000736;28;20030;-80
2023/04/29 05:19:17;;;;;;;12.95;5.57;;;;;;;;;;4999535;28;20045;-78
2023/04/29 05:21:42;;;;;;;12.50;6.10;;;;;;;;;;5000661;28;20084;-75
2023/04/29 05:24:08;;;;;;;11.55;5.50;;;;;;;;;;5000560;28;20053;-76
2023/04/29 05:26:33;;;;;;;13.30;6.30;;;;;;;;;;5000475;28;20028;-78
2023/04/29 05:29:00;;;;;;;8.00;5.25;;;;;;;;;;4999159;28;20044;-78
2023/04/29 05:31:26;;;;;;;9.57;4.93;;;;;;;;;;5000337;28;20026;-78
2023/04/29 05:33:52;;;;;;;10.85;6.88;;;;;;;;;;4999975;28;20057;-78
2023/04/29 05:36:17;;;;;;;12.88;5.88;;;;;;;;;;5000170;28;20073;-80
2023/04/29 05:38:46;;;;;;;9.70;5.03;;;;;;;;;;5000420;28;20018;-79
2023/04/29 05:41:12;;;;;;;11.48;6.10;;;;;;;;;;5000495;28;20018;-80
2023/04/29 05:43:38;;;;;;;9.40;6.00;;;;;;;;;;5000280;28;20041;-80
2023/04/29 05:46:05;;;;;;;9.18;5.30;;;;;;;;;;5000301;28;20364;-78
2023/04/29 05:48:30;;;;;;;9.88;6.30;;;;;;;;;;5000404;28;20310;-78
2023/04/29 05:50:55;;;;;;;9.57;5.80;;;;;;;;;;5002703;28;20137;-78
2023/04/29 05:53:23;;;;;;;11.35;6.10;;;;;;;;;;5003571;28;20032;-75
2023/04/29 05:55:49;;;;;;;12.85;7.35;;;;;;;;;;5003589;28;20098;-74
2023/04/29 05:58:15;;;;;;;11.45;7.03;;;;;;;;;;5002989;28;20050;-77
2023/04/29 06:00:42;;;;;;;10.75;6.75;;;;;;;;;;5002627;28;20480;-76
2023/04/29 06:03:09;;;;;;;11.27;6.90;;;;;;;;;;5003287;28;20031;-80
2023/04/29 06:05:35;;;;;;;13.20;6.93;;;;;;;;;;5003588;28;20191;-78
2023/04/29 06:08:01;;;;;;;12.05;6.90;;;;;;;;;;5003517;28;20033;-76
2023/04/29 06:10:27;;;;;;;8.30;6.13;;;;;;;;;;5003392;28;20089;-78
2023/04/29 06:12:52;;;;;;;11.68;6.72;;;;;;;;;;5003436;28;20040;-77
2023/04/29 06:15:18;;;;;;;9.90;5.47;;;;;;;;;;5003269;28;20026;-78
2023/04/29 06:17:43;;;;;;;8.98;5.95;;;;;;;;;;5003621;28;20213;-77
2023/04/29 06:20:10;;;;;;;9.15;6.88;;;;;;;;;;5001695;28;20089;-80
2023/04/29 06:22:35;;;;;;;11.05;6.20;;;;;;;;;;5001346;28;20271;-78
2023/04/29 06:25:00;;;;;;;9.70;6.07;;;;;;;;;;5002758;28;20337;-79
2023/04/29 06:27:27;;;;;;;10.27;6.70;;;;;;;;;;5002754;28;20022;-78
2023/04/29 06:29:52;;;;;;;10.70;6.13;;;;;;;;;;5002391;28;20041;-79
2023/04/29 06:32:18;;;;;;;8.50;5.55;;;;;;;;;;5002180;28;20120;-79
2023/04/29 06:34:44;;;;;;;10.40;5.97;;;;;;;;;;5002184;28;20026;-77
2023/04/29 06:37:13;;;;;;;11.68;6.38;;;;;;;;;;5002585;28;20054;-80
2023/04/29 06:39:38;;;;;;;9.43;6.07;;;;;;;;;;5002175;28;20022;-78
2023/04/29 06:42:03;;;;;;;9.02;6.15;;;;;;;;;;5002008;28;20026;-78
2023/04/29 06:44:29;;;;;;;10.60;6.07;;;;;;;;;;5002360;28;20029;-78
2023/04/29 06:46:57;;;;;;;9.80;5.72;;;;;;;;;;5002515;28;20053;-77
2023/04/29 06:49:23;;;;;;;10.23;5.80;;;;;;;;;;5002860;28;20023;-78
2023/04/29 06:51:48;;;;;;;9.48;5.75;;;;;;;;;;5002534;28;20068;-82
2023/04/29 06:54:14;;;;;;;11.55;6.13;;;;;;;;;;5002958;28;20033;-79
2023/04/29 06:56:40;;;;;;;11.55;6.13;;;;;;;;;;5002673;28;20057;-78
2023/04/29 06:59:06;;;;;;;8.82;6.13;;;;;;;;;;5002528;28;20055;-78
2023/04/29 07:01:31;;;;;;;10.27;6.55;;;;;;;;;;5002050;28;20014;-78
2023/04/29 07:03:56;;;;;;;11.98;7.28;;;;;;;;;;5002139;28;20132;-76
2023/04/29 07:06:22;;;;;;;10.82;6.78;;;;;;;;;;5002153;28;20101;-78
2023/04/29 07:08:47;;;;;;;10.93;6.03;;;;;;;;;;5001945;28;20068;-77
2023/04/29 07:11:12;;;;;;;12.40;6.70;;;;;;;;;;5001630;28;20190;-76
2023/04/29 07:13:38;;;;;;;10.50;7.07;;;;;;;;;;5001319;28;20025;-76
2023/04/29 07:16:04;;;;;;;14.02;7.05;;;;;;;;;;5000537;28;20026;-75
2023/04/29 07:18:29;;;;;;;15.43;7.72;;;;;;;;;;5002159;28;20054;-78
2023/04/29 07:21:00;;;;;;;12.48;7.78;;;;;;;;;;5001578;28;20333;-76
2023/04/29 07:23:28;;;;;;;13.18;7.70;;;;;;;;;;5001403;28;20065;-80
2023/04/29 07:25:54;;;;;;;13.68;7.43;;;;;;;;;;5001943;28;20026;-77
2023/04/29 07:28:19;;;;;;;12.25;7.63;;;;;;;;;;5002158;28;20140;-79
2023/04/29 07:30:44;;;;;;;13.23;7.55;;;;;;;;;;5001808;28;20023;-77
2023/04/29 07:33:10;;;;;;;11.10;7.40;;;;;;;;;;5001830;28;20022;-79
2023/04/29 07:35:35;;;;;;;11.93;6.55;;;;;;;;;;5001516;28;20027;-78
2023/04/29 07:38:01;;;;;;;12.45;7.65;;;;;;;;;;5000445;28;20073;-79
2023/04/29 07:40:26;;;;;;;14.00;7.85;;;;;;;;;;5000781;28;20077;-79
2023/04/29 07:42:51;;;;;;;11.98;7.60;;;;;;;;;;5001669;28;20034;-78
2023/04/29 07:45:17;;;;;;;15.25;8.70;;;;;;;;;;4998445;28;20096;-79
2023/04/29 07:47:42;;;;;;;13.32;7.65;;;;;;;;;;5000627;28;20026;-79
2023/04/29 07:50:08;;;;;;;13.82;8.35;;;;;;;;;;5000593;28;20048;-78
2023/04/29 07:52:34;;;;;;;14.68;8.57;;;;;;;;;;5000497;28;20046;-79
2023/04/29 07:54:59;;;;;;;14.57;8.10;;;;;;;;;;5001135;28;20018;-80
2023/04/29 07:57:24;;;;;;;19.88;8.75;;;;;;;;;;4999343;28;20018;-77
2023/04/29 07:59:54;;;;;;;13.02;7.97;;;;;;;;;;4997741;28;20057;-76
2023/04/29 08:02:20;;;;;;;15.65;8.82;;;;;;;;;;4995933;28;20094;-77
2023/04/29 08:04:45;;;;;;;13.88;8.32;;;;;;;;;;4998781;28;20033;-76
2023/04/29 08:07:11;;;;;;;17.02;9.13;;;;;;;;;;4999006;28;20026;-77
2023/04/29 08:09:37;;;;;;;15.48;9.23;;;;;;;;;;4998706;28;20077;-75
2023/04/29 08:12:03;;;;;;;16.88;9.18;;;;;;;;;;4996696;28;20031;-75
2023/04/29 08:14:29;;;;;;;18.55;8.95;;;;;;;;;;4999826;28;20149;-77
2023/04/29 08:16:54;;;;;;;16.63;9.13;;;;;;;;;;4998471;28;20430;-78
2023/04/29 08:19:20;;;;;;;16.25;8.95;;;;;;;;;;4999461;28;20046;-78
2023/04/29 08:21:46;;;;;;;16.52;9.20;;;;;;;;;;4999417;28;20310;-78
2023/04/29 08:24:11;;;;;;;16.88;8.90;;;;;;;;;;4999338;28;20022;-78
2023/04/29 08:26:39;;;;;;;17.13;8.82;;;;;;;;;;4999066;28;20037;-77
2023/04/29 08:29:05;;;;;;;16.27;8.80;;;;;;;;;;4999677;28;20029;-78
2023/04/29 08:31:31;;;;;;;18.83;8.40;;;;;;;;;;4999753;28;20110;-78
2023/04/29 08:33:57;;;;;;;14.55;7.65;;;;;;;;;;4999644;28;20105;-76
2023/04/29 08:36:23;;;;;;;19.52;8.73;;;;;;;;;;4999467;28;20037;-78
2023/04/29 08:38:51;;;;;;;13.85;7.80;;;;;;;;;;4999669;28;20042;-76
2023/04/29 08:41:17;;;;;;;14.50;8.02;;;;;;;;;;4999960;28;20057;-77
2023/04/29 08:43:42;;;;;;;13.98;7.75;;;;;;;;;;4999322;28;20314;-78
2023/04/29 08:46:08;;;;;;;16.27;8.52;;;;;;;;;;4999302;28;20090;-76
2023/04/29 08:48:39;;;;;;;16.52;8.23;;;;;;;;;;4999359;28;20030;-77
2023/04/29 08:51:05;;;;;;;13.45;7.85;;;;;;;;;;4996982;28;20098;-76
2023/04/29 08:53:30;;;;;;;13.68;7.53;;;;;;;;;;5003155;28;20049;-77
2023/04/29 08:56:00;;;;;;;13.65;7.88;;;;;;;;;;5007245;28;20038;-77
2023/04/29 08:58:28;;;;;;;13.52;7.65;;;;;;;;;;5013825;28;20363;-76
2023/04/29 09:00:54;;;;;;;13.77;8.05;;;;;;;;;;4996310;28;20067;-75
2023/04/29 09:03:49;;;;;;;12.15;7.82;;;;;;;;;;4999304;28;20025;-77
2023/04/29 09:06:16;;;;;;;14.88;8.63;;;;;;;;;;4999333;28;20034;-79
2023/04/29 09:08:41;;;;;;;13.30;7.53;;;;;;;;;;4999871;28;20034;-78
2023/04/29 09:11:09;;;;;;;11.70;7.00;;;;;;;;;;4999979;28;20064;-77
2023/04/29 09:13:34;;;;;;;15.18;7.07;;;;;;;;;;4998303;28;20361;-76
2023/04/29 09:16:00;;;;;;;10.95;7.20;;;;;;;;;;4999309;28;20332;-76
2023/04/29 09:18:45;;;;;;;14.45;7.70;;;;;;;;;;4999420;28;20027;-75
2023/04/29 09:21:22;;;;;;;14.75;8.10;;;;;;;;;;4999526;28;20054;-75
2023/04/29 09:23:53;;;;;;;11.02;6.70;;;;;;;;;;4999963;28;20195;-77
2023/04/29 09:26:18;;;;;;;;;;;;;;;;;;5002449;28;20021;-74
2023/04/29 09:28:46;;;;;;;11.73;7.00;;;;;;;;;;5002117;28;19980;-74
2023/04/29 09:31:12;;;;;;;14.02;7.03;;;;;;;;;;5002122;28;20070;-74
2023/04/29 09:33:52;;;;;;;11.05;6.72;;;;;;;;;;5001850;28;20117;-74
2023/04/29 09:36:45;;;;;;;10.50;7.00;;;;;;;;;;5001656;28;20022;-75
2023/04/29 09:39:16;;;;;;;11.02;7.10;;;;;;;;;;5001624;28;20088;-75
2023/04/29 09:41:59;;;;;;;11.85;7.22;;;;;;;;;;5001987;28;20034;-76
2023/04/29 09:44:34;;;;;;;10.98;6.65;;;;;;;;;;5002562;28;20042;-73
2023/04/29 09:47:05;;;;;;;10.20;6.45;;;;;;;;;;5002721;28;20040;-74
2023/04/29 09:49:41;;;;;;;9.95;6.20;;;;;;;;;;5002991;28;20053;-74
2023/04/29 09:52:15;;;;;;;10.50;5.88;;;;;;;;;;5000220;28;20467;-78
2023/04/29 09:54:42;;;;;;;14.25;7.05;;;;;;;;;;5001371;28;20195;-77
2023/04/29 09:57:09;;;;;;;10.00;6.15;;;;;;;;;;5001610;28;20053;-75
2023/04/29 09:59:37;;;;;;;10.75;6.05;;;;;;;;;;5001347;28;20070;-76
2023/04/29 10:02:14;;;;;;;8.13;5.53;;;;;;;;;;5002624;28;20026;-74
2023/04/29 10:04:41;;;;;;;8.90;5.65;;;;;;;;;;5003020;28;20058;-73
2023/04/29 10:07:08;;;;;;;8.23;5.20;;;;;;;;;;5002535;28;20022;-75
2023/04/29 10:09:36;;;;;;;9.18;5.20;;;;;;;;;;5002072;28;20019;-76
2023/04/29 10:12:04;;;;;;;8.32;5.10;;;;;;;;;;5001051;28;20072;-75
2023/04/29 10:14:40;;;;;;;8.10;5.15;;;;;;;;;;5000193;28;20043;-75
2023/04/29 10:17:12;;;;;;;6.75;4.80;;;;;;;;;;5000150;28;20034;-75
2023/04/29 10:20:01;;;;;;;7.25;4.90;;;;;;;;;;5001495;28;20325;-75
2023/04/29 10:22:46;;;;;;;6.97;4.80;;;;;;;;;;5000409;28;20038;-74
2023/04/29 10:25:13;;;;;;;6.78;4.90;;;;;;;;;;5001153;28;20304;-74
2023/04/29 10:27:43;;;;;;;7.13;5.15;;;;;;;;;;5001180;28;20027;-74
2023/04/29 10:30:12;;;;;;;8.38;5.03;;;;;;;;;;4999943;28;20022;-75
2023/04/29 10:32:48;;;;;;;8.40;5.55;;;;;;;;;;5001560;28;20022;-76
2023/04/29 10:35:18;;;;;;;6.95;5.03;;;;;;;;;;5000101;28;20324;-76
2023/04/29 10:37:46;;;;;;;8.35;5.30;;;;;;;;;;5000393;28;20033;-74
2023/04/29 10:40:15;;;;;;;8.52;5.10;;;;;;;;;;4998852;28;20109;-75
2023/04/29 10:42:48;;;;;;;8.75;5.65;;;;;;;;;;4999493;28;20057;-73
2023/04/29 10:45:31;;;;;;;9.38;5.45;;;;;;;;;;5001223;28;20054;-76
2023/04/29 10:48:07;;;;;;;8.95;5.47;;;;;;;;;;4999238;28;20026;-76
2023/04/29 10:50:41;;;;;;;8.65;4.93;;;;;;;;;;5001459;28;20037;-76
2023/04/29 10:53:06;;;;;;;10.55;5.95;;;;;;;;;;5001725;28;20126;-74
2023/04/29 10:55:36;;;;;;;7.68;5.30;;;;;;;;;;5001149;28;20031;-76
2023/04/29 10:58:05;;;;;;;11.23;5.87;;;;;;;;;;4999787;28;20054;-75
2023/04/29 11:00:37;;;;;;;7.40;5.40;;;;;;;;;;5000707;28;20469;-74
2023/04/29 11:03:05;;;;;;;8.25;5.70;;;;;;;;;;5001543;28;20026;-75
2023/04/29 11:05:37;;;;;;;9.10;4.80;;;;;;;;;;5001078;28;20347;-79
2023/04/29 11:08:12;;;;;;;9.80;5.47;;;;;;;;;;4998684;28;20030;-77
2023/04/29 11:10:41;;;;;;;8.80;4.90;;;;;;;;;;5000195;28;20466;-74
2023/04/29 11:13:29;;;;;;;8.68;4.80;;;;;;;;;;5000342;28;20026;-75
2023/04/29 11:16:10;;;;;;;7.55;4.60;;;;;;;;;;5000253;28;20058;-76
2023/04/29 11:19:09;;;;;;;6.93;4.32;;;;;;;;;;4998801;28;20072;-75
2023/04/29 11:21:35;;;;;;;8.70;4.93;;;;;;;;;;4982662;28;20026;-79
2023/04/29 11:24:02;;;;;;;7.50;4.82;;;;;;;;;;4999743;28;20026;-78
2023/04/29 11:26:27;;;;;;;6.57;4.68;;;;;;;;;;5001074;28;20057;-76
2023/04/29 11:28:53;;;;;;;7.80;4.40;;;;;;;;;;5000936;28;20026;-75
2023/04/29 11:31:24;;;;;;;8.18;4.65;;;;;;;;;;5001451;28;20046;-73
2023/04/29 11:33:50;;;;;;;6.45;4.53;;;;;;;;;;4999249;28;20137;-75
2023/04/29 11:36:15;;;;;;;7.38;4.60;;;;;;;;;;5000869;28;20053;-76
2023/04/29 11:38:41;;;;;;;7.78;4.72;;;;;;;;;;4999967;28;20030;-77
2023/04/29 11:41:06;;;;;;;7.88;4.88;;;;;;;;;;5000131;28;20034;-76
2023/04/29 11:43:31;;;;;;;10.27;5.30;;;;;;;;;;5000269;28;20030;-76
2023/04/29 11:45:57;;;;;;;7.97;5.10;;;;;;;;;;5015575;28;20030;-76
2023/04/29 11:48:24;;;;;;;7.28;4.35;;;;;;;;;;4999706;28;20034;-73
2023/04/29 11:50:52;;;;;;;6.90;4.60;;;;;;;;;;4999872;28;20029;-76
2023/04/29 11:53:24;;;;;;;7.97;4.55;;;;;;;;;;5000242;28;20068;-75
2023/04/29 11:55:51;;;;;;;7.55;4.78;;;;;;;;;;4999753;28;20030;-76
2023/04/29 11:58:20;;;;;;;7.82;4.47;;;;;;;;;;4999818;28;20050;-77
2023/04/29 12:00:49;;;;;;;7.80;4.90;;;;;;;;;;5000108;28;20045;-76
2023/04/29 12:03:16;;;;;;;8.77;4.93;;;;;;;;;;5000896;28;20103;-76
2023/04/29 12:06:01;;;;;;;10.13;5.20;;;;;;;;;;4998885;28;20238;-76
2023/04/29 12:08:27;;;;;;;8.60;5.18;;;;;;;;;;4999619;28;20281;-75
2023/04/29 12:10:58;;;;;;;7.15;4.80;;;;;;;;;;4997409;28;20332;-78
2023/04/29 12:13:27;;;;;;;8.32;5.10;;;;;;;;;;4997561;28;20058;-75
2023/04/29 12:15:53;;;;;;;6.75;4.68;;;;;;;;;;4997303;28;20022;-77
2023/04/29 12:18:21;;;;;;;7.78;5.13;;;;;;;;;;4996776;28;20088;-75
2023/04/29 12:20:47;;;;;;;8.50;5.20;;;;;;;;;;4996172;28;20146;-77
2023/04/29 12:23:25;;;;;;;7.50;4.80;;;;;;;;;;4996625;28;20098;-78
2023/04/29 12:25:56;;;;;;;9.00;5.60;;;;;;;;;;4997281;28;20022;-76
2023/04/29 12:28:23;;;;;;;6.82;4.68;;;;;;;;;;4997657;28;20443;-78
2023/04/29 12:30:51;;;;;;;7.72;5.03;;;;;;;;;;4998230;28;20427;-76
2023/04/29 12:33:21;;;;;;;8.40;5.40;;;;;;;;;;4997768;28;20100;-79
2023/04/29 12:35:50;;;;;;;7.95;5.60;;;;;;;;;;4998487;28;20030;-75
2023/04/29 12:38:26;;;;;;;10.63;5.47;;;;;;;;;;4999355;28;20038;-79
2023/04/29 12:40:53;;;;;;;8.63;5.32;;;;;;;;;;5000079;28;20080;-75
2023/04/29 12:43:19;;;;;;;9.05;5.65;;;;;;;;;;4998685;28;20034;-77
2023/04/29 12:45:44;;;;;;;8.02;5.13;;;;;;;;;;4998426;28;20116;-78
2023/04/29 12:48:12;;;;;;;9.25;5.15;;;;;;;;;;4998765;28;20438;-79
2023/04/29 12:50:38;;;;;;;8.02;5.03;;;;;;;;;;4997013;28;20331;-77
2023/04/29 12:53:05;;;;;;;8.77;5.28;;;;;;;;;;4999206;28;20248;-78
2023/04/29 12:55:35;;;;;;;8.90;5.63;;;;;;;;;;4997059;28;20378;-76
2023/04/29 12:58:02;;;;;;;8.57;5.05;;;;;;;;;;4999091;28;20052;-78
2023/04/29 13:00:27;;;;;;;10.10;5.40;;;;;;;;;;5002958;28;20034;-74
2023/04/29 13:02:53;;;;;;;8.88;5.25;;;;;;;;;;5003238;28;20061;-73
2023/04/29 13:05:18;;;;;;;6.93;4.68;;;;;;;;;;5003581;28;20030;-75
2023/04/29 13:07:44;;;;;;;7.68;4.75;;;;;;;;;;5002607;28;20049;-78
2023/04/29 13:10:11;;;;;;;7.53;4.68;;;;;;;;;;5003180;28;20081;-77
2023/04/29 13:12:37;;;;;;;7.57;4.60;;;;;;;;;;5002871;28;20057;-77
2023/04/29 13:15:03;;;;;;;9.60;5.18;;;;;;;;;;5002698;28;20306;-77
2023/04/29 13:17:29;;;;;;;9.30;5.38;;;;;;;;;;5003033;28;20090;-76
2023/04/29 13:19:54;;;;;;;9.30;4.97;;;;;;;;;;5003211;28;20320;-77
2023/04/29 13:22:20;;;;;;;9.60;5.00;;;;;;;;;;5002327;28;20034;-78
2023/04/29 13:24:46;;;;;;;8.48;5.30;;;;;;;;;;5002071;28;20018;-78
2023/04/29 13:27:14;;;;;;;8.75;5.10;;;;;;;;;;5001082;28;20030;-77
2023/04/29 13:29:40;;;;;;;7.75;5.10;;;;;;;;;;5002368;28;20373;-74
2023/04/29 13:32:05;;;;;;;10.38;4.72;;;;;;;;;;5003046;28;20041;-77
2023/04/29 13:34:31;;;;;;;10.00;4.75;;;;;;;;;;5002639;28;20033;-78
2023/04/29 13:36:56;;;;;;;9.27;4.93;;;;;;;;;;5002447;28;20028;-78
2023/04/29 13:39:22;;;;;;;8.38;5.47;;;;;;;;;;5001395;28;20038;-77
2023/04/29 13:41:47;;;;;;;10.38;5.30;;;;;;;;;;5002593;28;20207;-77
2023/04/29 13:44:13;;;;;;;7.85;4.78;;;;;;;;;;5002803;28;20329;-75
2023/04/29 13:46:38;;;;;;;11.57;4.97;;;;;;;;;;5001766;28;20030;-78
2023/04/29 13:49:04;;;;;;;7.88;4.70;;;;;;;;;;5001565;28;20026;-77
2023/04/29 13:51:32;;;;;;;6.65;4.65;;;;;;;;;;5001628;28;20034;-79
2023/04/29 13:53:58;;;;;;;7.05;4.43;;;;;;;;;;5001537;28;20317;-78
2023/04/29 13:56:24;;;;;;;6.63;4.55;;;;;;;;;;5002359;28;20022;-79
2023/04/29 13:58:51;;;;;;;7.53;4.50;;;;;;;;;;5003488;28;20042;-78
2023/04/29 14:01:16;;;;;;;7.85;4.72;;;;;;;;;;5002576;28;20156;-77
2023/04/29 14:03:41;;;;;;;6.47;4.20;;;;;;;;;;5002502;28;20014;-78
2023/04/29 14:06:07;;;;;;;7.03;4.00;;;;;;;;;;5001714;28;20034;-79
2023/04/29 14:08:32;;;;;;;6.40;4.13;;;;;;;;;;5001630;28;20187;-77
2023/04/29 14:10:58;;;;;;;6.88;4.07;;;;;;;;;;4999930;28;20030;-78
2023/04/29 14:13:24;;;;;;;6.22;3.95;;;;;;;;;;5002394;28;20034;-79
2023/04/29 14:15:49;;;;;;;7.13;3.70;;;;;;;;;;5001480;28;20074;-77
2023/04/29 14:18:14;;;;;;;6.60;4.07;;;;;;;;;;5002520;28;20333;-78
2023/04/29 14:20:40;;;;;;;7.70;4.00;;;;;;;;;;5001252;28;20033;-79
2023/04/29 14:23:05;;;;;;;7.18;4.07;;;;;;;;;;5001940;28;20037;-78
2023/04/29 14:25:31;;;;;;;6.60;4.07;;;;;;;;;;5001198;28;20053;-77
2023/04/29 14:27:56;;;;;;;7.22;3.75;;;;;;;;;;5002003;28;20022;-78
2023/04/29 14:30:21;;;;;;;5.85;3.45;;;;;;;;;;5001411;28;20014;-78
2023/04/29 14:32:47;;;;;;;5.78;3.72;;;;;;;;;;5001322;28;20022;-77
2023/04/29 14:35:12;;;;;;;6.10;3.70;;;;;;;;;;5000733;28;20062;-79
2023/04/29 14:37:38;;;;;;;5.75;3.75;;;;;;;;;;5000719;28;20314;-77
2023/04/29 14:40:05;;;;;;;4.72;3.70;;;;;;;;;;5000964;28;20035;-77